createdAt,value
2024-01-06T00:00:30.080Z,7.000000
2024-01-06T00:05:32.588Z,7.000000
2024-01-06T00:10:34.989Z,7.333333
2024-01-06T00:15:17.076Z,8.000000
2024-01-06T00:20:19.654Z,8.000000
2024-01-06T00:25:22.015Z,8.000000
2024-01-06T00:30:24.080Z,8.357143
2024-01-06T00:35:25.890Z,9.000000
2024-01-06T00:40:28.312Z,8.666667
2024-01-06T00:45:30.923Z,8.000000
2024-01-06T00:50:33.123Z,8.666667
2024-01-06T00:55:35.230Z,10.000000
2024-01-06T01:00:17.229Z,11.333333
2024-01-06T01:05:20.087Z,14.000000
2024-01-06T01:10:22.467Z,14.714286
2024-01-06T01:15:24.706Z,16.000000
2024-01-06T01:20:27.372Z,15.333333
2024-01-06T01:25:30.589Z,14.000000
2024-01-06T01:30:33.503Z,13.666667
2024-01-06T01:35:35.093Z,13.000000
2024-01-06T01:40:16.942Z,11.000000
2024-01-06T01:45:18.944Z,7.000000
2024-01-06T01:50:21.036Z,7.800000
2024-01-06T01:55:22.916Z,9.000000
2024-01-06T02:00:27.470Z,9.000000
2024-01-06T02:05:27.169Z,9.000000
2024-01-06T02:10:29.110Z,9.000000
2024-01-06T02:15:31.080Z,9.000000
2024-01-06T02:20:33.247Z,9.666667
2024-01-06T02:25:35.067Z,11.000000
2024-01-06T02:30:17.048Z,10.666667
2024-01-06T02:35:18.852Z,10.000000
2024-01-06T02:40:21.078Z,17.600000
2024-01-06T02:45:22.954Z,29.000000
2024-01-06T02:50:25.054Z,31.000000
2024-01-06T02:55:26.766Z,35.000000
2024-01-06T03:00:28.705Z,28.000000
2024-01-06T03:05:30.575Z,14.000000
2024-01-06T03:10:32.751Z,17.000000
2024-01-06T03:15:34.906Z,23.000000
2024-01-06T03:20:17.228Z,19.333333
2024-01-06T03:25:20.026Z,12.000000
2024-01-06T03:30:22.721Z,12.714286
2024-01-06T03:35:25.023Z,14.000000
2024-01-06T03:40:27.785Z,38.000000
2024-01-06T03:45:30.346Z,86.000000
2024-01-06T03:50:32.945Z,70.666667
2024-01-06T03:55:36.013Z,40.000000
2024-01-06T04:00:18.180Z,31.200000
2024-01-06T04:05:21.473Z,18.000000
2024-01-06T04:10:24.064Z,18.714286
2024-01-06T04:15:26.083Z,20.000000
2024-01-06T04:20:28.340Z,18.666667
2024-01-06T04:25:30.876Z,16.000000
2024-01-06T04:30:33.770Z,18.333333
2024-01-06T04:35:16.010Z,23.000000
2024-01-06T04:40:19.011Z,19.400000
2024-01-06T04:45:21.618Z,14.000000
2024-01-06T04:50:24.314Z,12.928571
2024-01-06T04:55:28.380Z,11.000000
2024-01-06T05:00:31.864Z,10.333333
2024-01-06T05:05:34.582Z,9.000000
2024-01-06T05:10:16.944Z,9.333333
2024-01-06T05:15:19.840Z,10.000000
2024-01-06T05:20:22.835Z,13.571429
2024-01-06T05:25:25.633Z,20.000000
2024-01-06T05:30:28.482Z,41.333333
2024-01-06T05:35:31.052Z,84.000000
2024-01-06T05:40:34.147Z,60.333333
2024-01-06T05:45:16.494Z,13.000000
2024-01-06T05:50:18.661Z,12.200000
2024-01-06T05:55:20.619Z,11.000000
2024-01-06T06:00:22.654Z,12.071429
2024-01-06T06:05:24.540Z,14.000000
2024-01-06T06:10:26.385Z,14.666667
2024-01-06T06:15:28.310Z,16.000000
2024-01-06T06:20:30.264Z,23.666667
2024-01-06T06:25:32.398Z,39.000000
2024-01-06T06:30:34.237Z,33.333333
2024-01-06T06:35:35.975Z,22.000000
2024-01-06T06:40:17.698Z,22.333333
2024-01-06T06:45:19.835Z,23.000000
2024-01-06T06:50:21.881Z,20.600000
2024-01-06T06:55:23.894Z,17.000000
2024-01-06T07:00:25.850Z,17.333333
2024-01-06T07:05:28.378Z,18.000000
2024-01-06T07:10:30.963Z,17.666667
2024-01-06T07:15:34.348Z,17.000000
2024-01-06T07:20:35.745Z,16.333333
2024-01-06T07:25:17.814Z,15.000000
2024-01-06T07:30:19.963Z,15.800000
2024-01-06T07:35:21.989Z,17.000000
2024-01-06T07:40:23.918Z,16.285714
2024-01-06T07:45:26.091Z,15.000000
2024-01-06T07:50:27.942Z,15.333333
2024-01-06T07:55:30.299Z,16.000000
2024-01-06T08:00:32.351Z,16.666667
2024-01-06T08:05:33.953Z,18.000000
2024-01-06T08:10:35.465Z,16.666667
2024-01-06T08:15:17.301Z,14.000000
2024-01-06T08:20:19.334Z,17.200000
2024-01-06T08:25:21.264Z,22.000000
2024-01-06T08:30:23.215Z,20.928571
2024-01-06T08:35:25.201Z,19.000000
2024-01-06T08:40:27.050Z,19.000000
2024-01-06T08:45:29.006Z,19.000000
2024-01-06T08:50:30.734Z,19.000000
2024-01-06T08:55:32.728Z,19.000000
2024-01-06T09:00:34.926Z,20.000000
2024-01-06T09:05:16.685Z,22.000000
2024-01-06T09:10:18.670Z,22.800000
2024-01-06T09:15:20.614Z,24.000000
2024-01-06T09:20:22.870Z,23.285714
2024-01-06T09:25:24.685Z,22.000000
2024-01-06T09:30:26.640Z,22.000000
2024-01-06T09:35:28.471Z,22.000000
2024-01-06T09:40:30.520Z,21.000000
2024-01-06T09:45:32.491Z,19.000000
2024-01-06T09:50:34.334Z,20.333333
2024-01-06T09:55:15.942Z,23.000000
2024-01-06T10:00:17.851Z,22.666667
2024-01-06T10:05:20.111Z,22.000000
2024-01-06T10:10:21.796Z,22.800000
2024-01-06T10:15:23.868Z,24.000000
2024-01-06T10:20:25.645Z,25.333333
2024-01-06T10:25:27.614Z,28.000000
2024-01-06T10:30:29.937Z,27.000000
2024-01-06T10:35:32.738Z,25.000000
2024-01-06T10:40:34.902Z,24.666667
2024-01-06T10:45:17.242Z,24.000000
2024-01-06T10:50:19.133Z,26.800000
2024-01-06T10:55:21.178Z,31.000000
2024-01-06T11:00:23.269Z,30.285714
2024-01-06T11:05:25.260Z,29.000000
2024-01-06T11:10:27.006Z,29.333333
2024-01-06T11:15:28.927Z,30.000000
2024-01-06T11:20:30.847Z,30.333333
2024-01-06T11:25:32.895Z,31.000000
2024-01-06T11:30:37.149Z,30.333333
2024-01-06T11:35:16.706Z,29.000000
2024-01-06T11:40:18.675Z,29.800000
2024-01-06T11:45:20.517Z,31.000000
2024-01-06T11:50:22.516Z,32.785714
2024-01-06T11:55:24.347Z,36.000000
2024-01-06T12:00:26.439Z,34.666667
2024-01-06T12:05:28.770Z,32.000000
2024-01-06T12:10:30.684Z,32.333333
2024-01-06T12:15:32.608Z,33.000000
2024-01-06T12:20:34.727Z,44.333333
2024-01-06T12:25:16.775Z,67.000000
2024-01-06T12:30:19.967Z,53.800000
2024-01-06T12:35:22.681Z,34.000000
2024-01-06T12:40:25.558Z,39.000000
2024-01-06T12:45:28.860Z,49.000000
2024-01-06T12:50:31.211Z,47.666667
2024-01-06T12:55:34.478Z,45.000000
2024-01-06T13:00:16.566Z,41.000000
2024-01-06T13:05:19.145Z,33.000000
2024-01-06T13:10:21.009Z,41.000000
2024-01-06T13:15:23.105Z,53.000000
2024-01-06T13:20:25.100Z,46.333333
2024-01-06T13:25:27.661Z,33.000000
2024-01-06T13:30:30.382Z,36.666667
2024-01-06T13:35:32.544Z,44.000000
2024-01-06T13:40:35.454Z,41.333333
2024-01-06T13:45:18.226Z,36.000000
2024-01-06T13:50:20.699Z,44.000000
2024-01-06T13:55:23.244Z,56.000000
2024-01-06T14:00:25.033Z,50.666667
2024-01-06T14:05:27.049Z,40.000000
2024-01-06T14:10:29.075Z,37.666667
2024-01-06T14:15:31.011Z,33.000000
2024-01-06T14:20:32.996Z,35.333333
2024-01-06T14:25:34.637Z,40.000000
2024-01-06T14:30:16.546Z,39.666667
2024-01-06T14:35:18.417Z,39.000000
2024-01-06T14:40:20.276Z,41.000000
2024-01-06T14:45:22.438Z,44.000000
2024-01-06T14:50:24.294Z,41.333333
2024-01-06T14:55:26.220Z,36.000000
2024-01-06T15:00:28.056Z,35.333333
2024-01-06T15:05:30.175Z,34.000000
2024-01-06T15:10:31.742Z,32.666667
2024-01-06T15:15:33.846Z,30.000000
2024-01-06T15:20:35.687Z,28.666667
2024-01-06T15:25:17.506Z,26.000000
2024-01-06T15:30:19.555Z,26.400000
2024-01-06T15:35:23.913Z,27.000000
2024-01-06T15:40:23.481Z,27.000000
2024-01-06T15:45:25.101Z,27.000000
2024-01-06T15:50:27.038Z,26.666667
2024-01-06T15:55:29.038Z,26.000000
2024-01-06T16:00:33.520Z,25.000000
2024-01-06T16:05:34.292Z,23.000000
2024-01-06T16:10:16.541Z,23.000000
2024-01-06T16:15:18.634Z,23.000000
2024-01-06T16:20:20.853Z,25.000000
2024-01-06T16:25:22.628Z,28.000000
2024-01-06T16:30:24.611Z,25.333333
2024-01-06T16:35:26.892Z,20.000000
2024-01-06T16:40:29.267Z,21.000000
2024-01-06T16:45:30.998Z,23.000000
2024-01-06T16:50:36.357Z,22.000000
2024-01-06T16:55:35.879Z,20.000000
2024-01-06T17:00:18.223Z,20.000000
2024-01-06T17:05:20.209Z,20.000000
2024-01-06T17:10:22.877Z,20.714286
2024-01-06T17:15:25.125Z,22.000000
2024-01-06T17:20:28.289Z,22.666667
2024-01-06T17:25:30.738Z,24.000000
2024-01-06T17:30:32.516Z,26.000000
2024-01-06T17:35:34.486Z,30.000000
2024-01-06T17:40:16.009Z,29.000000
2024-01-06T17:45:18.027Z,27.000000
2024-01-06T17:50:19.744Z,26.200000
2024-01-06T17:55:21.909Z,25.000000
2024-01-06T18:00:23.799Z,26.785714
2024-01-06T18:05:25.775Z,30.000000
2024-01-06T18:10:27.493Z,27.666667
2024-01-06T18:15:32.624Z,23.000000
2024-01-06T18:20:31.524Z,22.000000
2024-01-06T18:25:33.383Z,20.000000
2024-01-06T18:30:35.520Z,19.666667
2024-01-06T18:35:17.106Z,19.000000
2024-01-06T18:40:19.050Z,19.400000
2024-01-06T18:45:21.413Z,20.000000
2024-01-06T18:50:23.837Z,20.000000
2024-01-06T18:55:26.535Z,20.000000
2024-01-06T19:00:29.449Z,19.333333
2024-01-06T19:05:31.863Z,18.000000
2024-01-06T19:10:36.742Z,18.666667
2024-01-06T19:15:16.797Z,20.000000
2024-01-06T19:20:19.823Z,19.600000
2024-01-06T19:25:22.370Z,19.000000
2024-01-06T19:30:24.672Z,18.000000
2024-01-06T19:35:26.693Z,16.000000
2024-01-06T19:40:28.530Z,15.666667
2024-01-06T19:45:30.644Z,15.000000
2024-01-06T19:50:32.834Z,14.333333
2024-01-06T19:55:35.364Z,13.000000
2024-01-06T20:00:17.651Z,12.666667
2024-01-06T20:05:20.013Z,12.000000
2024-01-06T20:10:21.669Z,12.400000
2024-01-06T20:15:23.729Z,13.000000
2024-01-06T20:20:25.664Z,12.000000
2024-01-06T20:25:27.912Z,10.000000
2024-01-06T20:30:29.747Z,9.666667
2024-01-06T20:35:32.673Z,9.000000
2024-01-06T20:40:35.571Z,8.333333
2024-01-06T20:45:18.501Z,7.000000
2024-01-06T20:50:21.419Z,7.400000
2024-01-06T20:55:23.982Z,8.000000
2024-01-06T21:00:26.605Z,8.000000
2024-01-06T21:05:28.830Z,8.000000
2024-01-06T21:10:31.810Z,8.000000
2024-01-06T21:15:34.437Z,8.000000
2024-01-06T21:20:16.837Z,8.333333
2024-01-06T21:25:19.840Z,9.000000
2024-01-06T21:30:22.120Z,9.400000
2024-01-06T21:35:23.635Z,10.000000
2024-01-06T21:40:25.789Z,9.333333
2024-01-06T21:45:27.844Z,8.000000
2024-01-06T21:50:30.548Z,8.333333
2024-01-06T21:55:33.898Z,9.000000
2024-01-06T22:00:16.397Z,8.666667
2024-01-06T22:05:19.236Z,8.000000
2024-01-06T22:10:21.830Z,8.400000
2024-01-06T22:15:24.622Z,9.000000
2024-01-06T22:20:27.178Z,9.333333
2024-01-06T22:25:29.836Z,10.000000
2024-01-06T22:30:32.290Z,9.666667
2024-01-06T22:35:35.158Z,9.000000
2024-01-06T22:40:17.345Z,9.000000
2024-01-06T22:45:20.155Z,9.000000
2024-01-06T22:50:22.685Z,9.000000
2024-01-06T22:55:25.431Z,9.000000
2024-01-06T23:00:27.916Z,9.333333
2024-01-06T23:05:30.782Z,10.000000
2024-01-06T23:10:32.926Z,9.666667
2024-01-06T23:15:35.387Z,9.000000
2024-01-06T23:20:17.107Z,9.000000
2024-01-06T23:25:19.074Z,9.000000
2024-01-06T23:30:22.142Z,9.400000
2024-01-06T23:35:24.352Z,10.000000
2024-01-06T23:40:26.463Z,9.666667
2024-01-06T23:45:28.487Z,9.000000
2024-01-06T23:50:30.339Z,9.333333
2024-01-06T23:55:32.782Z,10.000000
